Time;durP1;ratioP1;P1;durP2;ratioP2;P2;SDS_P1;SDS_P2;PMS_P1;PMS_P2;Temp;Humidity;BMP_temperature;BMP_pressure;BME280_temperature;BME280_humidity;BME280_pressure;Samples;Min_cycle;Max_cycle;Signal;HPM_P1;HPM_P2
2024/04/12 00:02:26;;;;;;;8.77;7.97;;;7.80;99.90;;;;;;5375778;26;20238;-77
2024/04/12 00:04:53;;;;;;;8.90;8.10;;;7.70;99.90;;;;;;5408534;26;20241;-77
2024/04/12 00:07:22;;;;;;;9.17;8.27;;;7.70;99.90;;;;;;5380479;26;20586;-77
2024/04/12 00:09:52;;;;;;;8.63;7.83;;;7.60;99.90;;;;;;5368250;26;20366;-77
2024/04/12 00:12:25;;;;;;;8.67;7.97;;;7.60;99.90;;;;;;5385269;26;20237;-77
2024/04/12 00:14:51;;;;;;;8.93;8.13;;;7.60;99.90;;;;;;5382109;26;20268;-76
2024/04/12 00:17:22;;;;;;;8.97;8.10;;;7.50;99.90;;;;;;5384045;26;20234;-77
2024/04/12 00:19:52;;;;;;;10.43;8.23;;;7.50;99.90;;;;;;5384977;26;20234;-77
2024/04/12 00:22:20;;;;;;;9.13;8.10;;;7.60;99.90;;;;;;5384715;26;20996;-77
2024/04/12 00:24:46;;;;;;;8.90;8.07;;;7.60;99.90;;;;;;5384169;26;20649;-76
2024/04/12 00:27:15;;;;;;;9.47;8.20;;;7.50;99.90;;;;;;5384108;26;20284;-76
2024/04/12 00:29:41;;;;;;;9.00;8.20;;;7.50;99.90;;;;;;5382002;26;20758;-77
2024/04/12 00:32:18;;;;;;;9.13;8.33;;;7.40;99.90;;;;;;5384792;26;20234;-77
2024/04/12 00:34:47;;;;;;;9.77;8.50;;;7.40;99.90;;;;;;5382081;26;20249;-77
2024/04/12 00:37:20;;;;;;;9.07;8.17;;;7.40;99.90;;;;;;5381787;26;20272;-77
2024/04/12 00:39:48;;;;;;;8.90;8.10;;;7.40;99.90;;;;;;5384511;26;20310;-77
2024/04/12 00:42:24;;;;;;;9.83;8.53;;;7.40;99.90;;;;;;5384616;26;20280;-77
2024/04/12 00:44:54;;;;;;;9.23;8.47;;;7.40;99.90;;;;;;5380603;26;20237;-77
2024/04/12 00:47:23;;;;;;;8.70;7.83;;;7.50;99.90;;;;;;5382922;26;20238;-77
2024/04/12 00:49:51;;;;;;;9.83;8.70;;;7.40;99.90;;;;;;5383025;26;20233;-77
2024/04/12 00:52:22;;;;;;;9.27;8.27;;;7.40;99.90;;;;;;5381765;26;20285;-77
2024/04/12 00:54:53;;;;;;;10.03;8.20;;;7.40;99.90;;;;;;5381275;26;20656;-77
2024/04/12 00:57:22;;;;;;;9.43;8.50;;;7.30;99.90;;;;;;5382819;26;20234;-77
2024/04/12 00:59:51;;;;;;;9.10;8.20;;;7.30;99.90;;;;;;5383424;26;20736;-77
2024/04/12 01:02:21;;;;;;;8.93;8.07;;;7.30;99.90;;;;;;5384266;26;20293;-77
2024/04/12 01:04:47;;;;;;;8.70;7.80;;;7.30;99.90;;;;;;5383219;26;20363;-77
2024/04/12 01:07:19;;;;;;;8.80;8.00;;;7.30;99.90;;;;;;5383382;26;20233;-77
2024/04/12 01:09:45;;;;;;;12.23;8.47;;;7.20;99.90;;;;;;5384490;26;20238;-77
2024/04/12 01:12:17;;;;;;;9.27;8.40;;;7.20;99.90;;;;;;5383420;26;20233;-77
2024/04/12 01:14:44;;;;;;;8.97;8.10;;;7.20;99.90;;;;;;5377573;26;20268;-77
2024/04/12 01:17:12;;;;;;;9.00;8.10;;;7.20;99.90;;;;;;5378526;26;20280;-77
2024/04/12 01:19:38;;;;;;;8.73;7.93;;;7.30;99.90;;;;;;5379376;26;20598;-77
2024/04/12 01:22:07;;;;;;;9.50;8.60;;;7.20;99.90;;;;;;5377272;26;20264;-77
2024/04/12 01:24:39;;;;;;;9.07;8.33;;;7.30;99.90;;;;;;5380852;26;20305;-77
2024/04/12 01:27:08;;;;;;;8.73;7.97;;;7.30;99.90;;;;;;5380859;26;20337;-77
2024/04/12 01:29:34;;;;;;;8.50;7.70;;;7.20;99.90;;;;;;5378832;26;20272;-77
2024/04/12 01:32:04;;;;;;;10.50;7.80;;;7.20;99.90;;;;;;5409011;26;20289;-77
2024/04/12 01:34:30;;;;;;;8.53;7.77;;;7.10;99.90;;;;;;5381443;26;20249;-76
2024/04/12 01:37:00;;;;;;;8.97;8.17;;;7.10;99.90;;;;;;5380964;26;20234;-77
2024/04/12 01:39:28;;;;;;;8.60;7.90;;;7.10;99.90;;;;;;5408785;26;20370;-77
2024/04/12 01:42:04;;;;;;;9.73;8.70;;;7.10;99.90;;;;;;5388733;26;20243;-78
2024/04/12 01:44:31;;;;;;;9.47;8.50;;;7.00;99.90;;;;;;5415568;26;20241;-77
2024/04/12 01:47:03;;;;;;;9.30;8.40;;;7.00;99.90;;;;;;5409990;26;20265;-78
2024/04/12 01:49:33;;;;;;;9.53;8.63;;;7.00;99.90;;;;;;5381231;26;20725;-77
2024/04/12 01:52:12;;;;;;;9.43;8.50;;;7.00;99.90;;;;;;5382185;26;20345;-76
2024/04/12 01:55:04;;;;;;;9.30;8.30;;;7.00;99.90;;;;;;5381325;26;20626;-77
2024/04/12 01:57:30;;;;;;;9.37;8.60;;;7.00;99.90;;;;;;5378673;26;20257;-77
2024/04/12 01:59:56;;;;;;;9.10;8.40;;;6.90;99.90;;;;;;5375644;26;20237;-77
2024/04/12 02:02:27;;;;;;;10.30;8.80;;;7.00;99.90;;;;;;5380322;26;20245;-77
2024/04/12 02:04:56;;;;;;;9.30;8.40;;;7.00;99.90;;;;;;5408249;26;20356;-77
2024/04/12 02:07:27;;;;;;;9.10;8.40;;;7.00;99.90;;;;;;5380105;26;20240;-77
2024/04/12 02:09:58;;;;;;;8.70;7.80;;;7.00;99.90;;;;;;5408096;26;20275;-77
2024/04/12 02:12:29;;;;;;;11.03;9.03;;;7.00;99.90;;;;;;5378572;26;20723;-77
2024/04/12 02:14:59;;;;;;;9.60;8.70;;;7.00;99.90;;;;;;5379072;26;20538;-77
2024/04/12 02:17:30;;;;;;;10.17;9.20;;;7.00;99.90;;;;;;5372360;26;20609;-77
2024/04/12 02:19:56;;;;;;;10.07;9.13;;;6.90;99.90;;;;;;5379081;26;20301;-77
2024/04/12 02:22:25;;;;;;;10.93;9.83;;;7.00;99.90;;;;;;5408536;26;20743;-77
2024/04/12 02:24:51;;;;;;;9.67;8.77;;;7.00;99.90;;;;;;5379460;26;20304;-77
2024/04/12 02:27:22;;;;;;;9.20;8.40;;;7.00;99.90;;;;;;5380254;26;20744;-77
2024/04/12 02:29:51;;;;;;;9.20;8.40;;;7.00;99.90;;;;;;5380335;26;20233;-77
2024/04/12 02:32:20;;;;;;;9.57;8.67;;;6.90;99.90;;;;;;5379379;26;20245;-77
2024/04/12 02:34:48;;;;;;;9.73;8.93;;;6.90;99.90;;;;;;5379810;26;20301;-77
2024/04/12 02:37:16;;;;;;;10.57;9.23;;;6.90;99.90;;;;;;5407746;26;20238;-77
2024/04/12 02:39:42;;;;;;;9.70;8.80;;;6.90;99.90;;;;;;5380385;26;20338;-77
2024/04/12 02:42:13;;;;;;;10.37;9.47;;;6.90;99.90;;;;;;5382333;26;20234;-76
2024/04/12 02:44:39;;;;;;;10.17;9.13;;;7.00;99.90;;;;;;5375889;26;20752;-77
2024/04/12 02:47:14;;;;;;;9.80;8.87;;;7.00;99.90;;;;;;5427296;26;20257;-77
2024/04/12 02:49:40;;;;;;;10.23;9.33;;;6.90;99.90;;;;;;5390064;26;20240;-77
2024/04/12 02:52:10;;;;;;;10.37;9.47;;;6.80;99.90;;;;;;5381026;26;20288;-78
2024/04/12 02:54:36;;;;;;;9.93;9.07;;;6.70;99.90;;;;;;5377592;26;20253;-76
2024/04/12 02:57:04;;;;;;;10.63;9.73;;;6.70;99.90;;;;;;5367117;26;20246;-76
2024/04/12 02:59:30;;;;;;;10.30;9.37;;;6.70;99.90;;;;;;5402351;26;20763;-76
2024/04/12 03:01:59;;;;;;;9.93;9.07;;;6.70;99.90;;;;;;5377658;26;20248;-76
2024/04/12 03:04:27;;;;;;;10.40;9.40;;;6.70;99.90;;;;;;5394671;26;20276;-76
2024/04/12 03:06:56;;;;;;;11.63;10.63;;;6.70;99.90;;;;;;5378735;26;20284;-76
2024/04/12 03:09:22;;;;;;;10.67;9.60;;;6.80;99.90;;;;;;5393755;26;20728;-76
2024/04/12 03:11:50;;;;;;;10.77;9.77;;;6.70;99.90;;;;;;5380187;26;20283;-77
2024/04/12 03:14:18;;;;;;;10.27;9.37;;;6.70;99.90;;;;;;5395114;26;20621;-75
2024/04/12 03:16:46;;;;;;;11.00;9.47;;;6.70;99.90;;;;;;5379623;26;20234;-76
2024/04/12 03:19:14;;;;;;;10.93;9.93;;;6.60;99.90;;;;;;5377833;26;20245;-77
2024/04/12 03:21:50;;;;;;;10.77;9.77;;;6.70;99.90;;;;;;5377739;26;20245;-77
2024/04/12 03:24:16;;;;;;;11.63;10.63;;;6.60;99.90;;;;;;5393912;26;20238;-75
2024/04/12 03:27:11;;;;;;;10.63;9.70;;;6.60;99.90;;;;;;5378386;26;20280;-76
2024/04/12 03:29:38;;;;;;;10.87;9.80;;;6.60;99.90;;;;;;5389837;26;20244;-75
2024/04/12 03:32:07;;;;;;;10.30;9.47;;;6.60;99.90;;;;;;5379462;26;20292;-77
2024/04/12 03:34:35;;;;;;;10.73;9.73;;;6.50;99.90;;;;;;5379193;26;20721;-76
2024/04/12 03:37:23;;;;;;;11.20;10.03;;;6.50;99.90;;;;;;5376866;26;20315;-76
2024/04/12 03:40:00;;;;;;;12.17;10.33;;;6.50;99.90;;;;;;5379215;26;20345;-76
2024/04/12 03:42:28;;;;;;;11.27;10.33;;;6.50;99.90;;;;;;5379006;26;20272;-76
2024/04/12 03:44:56;;;;;;;11.20;10.10;;;6.50;99.90;;;;;;5377882;26;20260;-76
2024/04/12 03:47:25;;;;;;;10.97;10.07;;;6.50;99.90;;;;;;5380319;26;20284;-76
2024/04/12 03:49:52;;;;;;;11.23;10.20;;;6.50;99.90;;;;;;5380737;26;20241;-76
2024/04/12 03:52:26;;;;;;;10.77;9.77;;;6.50;99.90;;;;;;5382434;26;20232;-76
2024/04/12 03:55:08;;;;;;;11.50;10.43;;;6.40;99.90;;;;;;5385108;26;20778;-76
2024/04/12 03:57:38;;;;;;;13.50;9.83;;;6.30;99.90;;;;;;5388822;26;20301;-76
2024/04/12 04:00:11;;;;;;;12.00;10.17;;;6.20;99.90;;;;;;5382075;26;20230;-77
2024/04/12 04:02:41;;;;;;;11.17;10.27;;;6.10;99.90;;;;;;5381592;26;20663;-76
2024/04/12 04:05:16;;;;;;;10.90;9.90;;;6.10;99.90;;;;;;5378934;26;20249;-76
2024/04/12 04:07:45;;;;;;;10.33;9.47;;;6.10;99.90;;;;;;5408466;26;20237;-76
2024/04/12 04:10:15;;;;;;;10.87;9.97;;;6.10;99.90;;;;;;5368094;26;20268;-75
2024/04/12 04:12:44;;;;;;;10.80;9.70;;;6.10;99.90;;;;;;5381140;26;20600;-76
2024/04/12 04:15:14;;;;;;;12.20;11.00;;;6.10;99.90;;;;;;5368039;26;20651;-77
2024/04/12 04:17:40;;;;;;;11.87;10.77;;;6.10;99.90;;;;;;5395100;26;20820;-77
2024/04/12 04:20:10;;;;;;;11.87;10.77;;;6.20;99.90;;;;;;5380288;26;20248;-76
2024/04/12 04:22:49;;;;;;;11.93;10.87;;;6.10;99.90;;;;;;5388592;26;20282;-76
2024/04/12 04:25:21;;;;;;;11.30;10.30;;;6.10;99.90;;;;;;5379911;26;20790;-76
2024/04/12 04:27:47;;;;;;;11.80;10.80;;;6.10;99.90;;;;;;5380771;26;20272;-76
2024/04/12 04:30:18;;;;;;;12.03;10.87;;;6.10;99.90;;;;;;5379979;26;20249;-76
2024/04/12 04:32:43;;;;;;;11.80;10.70;;;6.20;99.90;;;;;;5382315;26;20619;-77
2024/04/12 04:35:13;;;;;;;12.27;11.20;;;6.20;99.90;;;;;;5409474;26;20300;-77
2024/04/12 04:37:40;;;;;;;12.23;11.07;;;6.30;99.90;;;;;;5381343;26;20309;-77
2024/04/12 04:40:16;;;;;;;11.33;10.33;;;6.30;99.90;;;;;;5380093;26;20295;-77
2024/04/12 04:42:45;;;;;;;10.80;9.90;;;6.30;99.90;;;;;;5381433;26;20237;-77
2024/04/12 04:45:17;;;;;;;11.33;10.43;;;6.20;99.90;;;;;;5408967;26;20252;-77
2024/04/12 04:47:44;;;;;;;12.43;11.13;;;6.20;99.90;;;;;;5381433;26;20251;-76
2024/04/12 04:50:13;;;;;;;10.77;9.97;;;6.20;99.90;;;;;;5397036;26;20237;-77
2024/04/12 04:52:39;;;;;;;12.07;11.07;;;6.30;99.90;;;;;;5380606;26;20242;-77
2024/04/12 04:55:12;;;;;;;11.23;10.27;;;6.30;99.90;;;;;;5381228;26;20341;-76
2024/04/12 04:57:43;;;;;;;11.03;10.13;;;6.30;99.90;;;;;;5381082;26;20599;-76
2024/04/12 05:00:18;;;;;;;11.27;10.37;;;6.50;99.90;;;;;;5382430;26;20248;-77
2024/04/12 05:02:49;;;;;;;10.80;9.80;;;6.50;99.90;;;;;;5382300;26;20261;-76
2024/04/12 05:05:22;;;;;;;10.33;9.43;;;6.60;99.90;;;;;;5382591;26;20291;-77
2024/04/12 05:07:49;;;;;;;10.87;9.83;;;6.70;99.90;;;;;;5381444;26;20230;-74
2024/04/12 05:10:20;;;;;;;10.70;9.83;;;6.80;99.90;;;;;;5380803;26;20241;-77
2024/04/12 05:12:48;;;;;;;10.83;9.80;;;6.90;99.90;;;;;;5381811;26;20381;-77
2024/04/12 05:18:03;;;;;;;10.90;10.00;;;7.10;99.90;;;;;;5381352;26;20809;-77
2024/04/12 05:20:38;;;;;;;9.87;9.07;;;7.20;99.90;;;;;;5382012;26;20282;-76
2024/04/12 05:23:08;;;;;;;10.77;9.77;;;7.30;99.90;;;;;;5409921;26;20769;-77
2024/04/12 05:25:34;;;;;;;10.30;9.50;;;7.40;99.90;;;;;;5381381;26;20242;-76
2024/04/12 05:28:06;;;;;;;10.47;9.60;;;7.50;99.90;;;;;;5381091;26;20752;-77
2024/04/12 05:30:37;;;;;;;11.77;10.80;;;7.70;99.90;;;;;;5385268;26;20245;-77
2024/04/12 05:33:06;;;;;;;11.03;10.03;;;7.80;99.90;;;;;;5389255;26;20233;-78
2024/04/12 05:35:34;;;;;;;10.33;9.33;;;8.00;99.90;;;;;;5416325;26;20300;-77
2024/04/12 05:38:07;;;;;;;9.70;8.83;;;8.10;99.90;;;;;;5386069;26;20305;-79
2024/04/12 05:40:34;;;;;;;9.17;8.47;;;8.20;99.90;;;;;;5387424;26;20352;-78
2024/04/12 05:43:03;;;;;;;10.57;9.67;;;8.20;99.90;;;;;;5388118;26;20245;-78
2024/04/12 05:45:28;;;;;;;10.93;9.90;;;8.20;99.90;;;;;;5389622;26;20716;-77
2024/04/12 05:47:59;;;;;;;9.73;8.73;;;8.20;99.90;;;;;;5410939;26;20294;-77
2024/04/12 05:50:25;;;;;;;8.80;8.10;;;8.30;99.90;;;;;;5412583;26;20284;-78
2024/04/12 05:52:54;;;;;;;8.00;7.20;;;8.30;99.90;;;;;;5382474;26;20247;-78
2024/04/12 05:55:24;;;;;;;8.73;7.93;;;8.30;99.90;;;;;;5378902;26;20233;-77
2024/04/12 05:57:50;;;;;;;8.83;7.00;;;8.40;99.90;;;;;;5376743;26;20380;-76
2024/04/12 06:00:23;;;;;;;9.83;8.93;;;8.60;99.90;;;;;;5379568;26;20237;-76
2024/04/12 06:02:49;;;;;;;7.87;7.17;;;8.60;99.90;;;;;;5378087;26;20783;-77
2024/04/12 06:05:22;;;;;;;6.80;5.77;;;8.70;99.90;;;;;;5378609;26;20287;-76
2024/04/12 06:07:48;;;;;;;9.00;8.20;;;8.80;99.90;;;;;;5378334;26;20305;-77
2024/04/12 06:10:17;;;;;;;9.03;8.13;;;8.90;99.90;;;;;;5379998;26;20327;-76
2024/04/12 06:12:45;;;;;;;9.00;8.20;;;9.00;99.90;;;;;;5379380;26;20768;-77
2024/04/12 06:15:15;;;;;;;8.17;7.37;;;9.10;99.90;;;;;;5379176;26;20253;-76
2024/04/12 06:17:43;;;;;;;8.60;7.60;;;9.20;99.90;;;;;;5406513;26;20238;-76
2024/04/12 06:20:11;;;;;;;7.00;6.00;;;9.40;99.90;;;;;;5379828;26;20774;-76
2024/04/12 06:22:43;;;;;;;8.33;6.73;;;9.60;99.90;;;;;;5379502;26;20237;-76
2024/04/12 06:25:14;;;;;;;6.23;5.63;;;9.60;99.90;;;;;;5378707;26;20243;-77
2024/04/12 06:27:42;;;;;;;7.70;7.10;;;9.80;99.90;;;;;;5379014;26;20266;-77
2024/04/12 06:30:13;;;;;;;6.30;5.70;;;9.90;99.90;;;;;;5379327;26;20623;-77
2024/04/12 06:32:40;;;;;;;7.90;6.00;;;9.90;99.90;;;;;;5379875;26;20234;-77
2024/04/12 06:35:20;;;;;;;8.47;6.90;;;9.90;99.90;;;;;;5378869;26;20240;-76
2024/04/12 06:37:51;;;;;;;8.33;7.53;;;9.80;99.90;;;;;;5378558;26;20286;-77
2024/04/12 06:40:19;;;;;;;9.93;8.13;;;9.90;99.90;;;;;;5379242;26;20247;-76
2024/04/12 06:42:47;;;;;;;7.10;6.40;;;9.90;99.90;;;;;;5379028;26;20233;-76
2024/04/12 06:45:15;;;;;;;8.20;7.43;;;10.00;99.90;;;;;;5378927;26;20251;-77
2024/04/12 06:47:41;;;;;;;7.57;5.87;;;10.20;99.90;;;;;;5384702;26;20231;-78
2024/04/12 06:50:10;;;;;;;6.40;4.73;;;10.30;99.90;;;;;;5384970;26;20345;-76
2024/04/12 06:52:36;;;;;;;6.30;4.73;;;10.50;99.90;;;;;;5385503;26;20307;-78
2024/04/12 06:55:14;;;;;;;7.40;4.23;;;10.60;99.90;;;;;;5384997;26;20238;-77
2024/04/12 06:57:44;;;;;;;6.07;4.50;;;10.70;99.90;;;;;;5384687;26;20282;-78
2024/04/12 07:00:20;;;;;;;6.73;4.30;;;10.70;99.90;;;;;;5384175;26;20245;-78
2024/04/12 07:02:49;;;;;;;5.87;4.40;;;10.90;99.90;;;;;;5385356;26;20275;-76
2024/04/12 07:05:18;;;;;;;4.73;4.07;;;11.00;99.90;;;;;;5384013;26;20248;-77
2024/04/12 07:07:44;;;;;;;5.43;3.93;;;11.30;99.90;;;;;;5381893;26;20225;-78
2024/04/12 07:10:15;;;;;;;4.90;4.00;;;11.50;99.90;;;;;;5382534;26;20285;-78
2024/04/12 07:12:43;;;;;;;7.03;5.80;;;11.70;99.90;;;;;;5385076;26;20256;-76
2024/04/12 07:15:12;;;;;;;6.13;5.00;;;11.90;99.90;;;;;;5386149;26;20292;-79
2024/04/12 07:17:39;;;;;;;6.40;5.77;;;12.30;99.90;;;;;;5382067;26;20283;-78
2024/04/12 07:20:13;;;;;;;8.93;4.87;;;12.50;99.90;;;;;;5381693;26;20637;-77
2024/04/12 07:22:39;;;;;;;6.27;5.63;;;12.80;99.90;;;;;;5385418;26;20642;-79
2024/04/12 07:25:09;;;;;;;7.13;6.43;;;13.30;99.90;;;;;;5384813;26;20237;-78
2024/04/12 07:27:41;;;;;;;7.53;6.83;;;13.80;99.90;;;;;;5382796;26;20326;-77
2024/04/12 07:30:10;;;;;;;6.80;4.73;;;14.20;99.90;;;;;;5386068;26;20238;-78
2024/04/12 07:32:36;;;;;;;9.20;6.10;;;14.50;99.90;;;;;;5411016;26;20280;-78
2024/04/12 07:35:22;;;;;;;7.50;5.20;;;14.90;99.90;;;;;;5382589;26;20659;-78
2024/04/12 07:37:48;;;;;;;8.27;4.97;;;15.10;99.90;;;;;;5382878;26;20334;-79
2024/04/12 07:40:24;;;;;;;6.53;4.90;;;15.50;99.90;;;;;;5383366;26;20236;-78
2024/04/12 07:42:52;;;;;;;7.67;5.73;;;15.90;99.90;;;;;;5394873;26;20275;-78
2024/04/12 07:45:23;;;;;;;9.70;4.93;;;16.20;99.90;;;;;;5381226;26;20250;-78
2024/04/12 07:47:53;;;;;;;8.17;7.20;;;16.60;99.90;;;;;;5383096;26;20276;-78
2024/04/12 07:50:28;;;;;;;9.37;6.90;;;16.90;99.90;;;;;;5383016;26;20692;-79
2024/04/12 07:52:57;;;;;;;9.73;6.90;;;17.10;99.90;;;;;;5383446;26;20282;-79
2024/04/12 07:55:26;;;;;;;8.80;6.30;;;17.40;99.90;;;;;;5382796;26;20290;-78
2024/04/12 07:57:55;;;;;;;6.57;5.80;;;17.50;99.90;;;;;;5409681;26;20295;-78
2024/04/12 08:00:35;;;;;;;6.40;4.50;;;18.00;99.90;;;;;;5382814;26;20605;-78
2024/04/12 08:03:06;;;;;;;7.40;5.27;;;18.40;99.90;;;;;;5382611;26;20275;-78
2024/04/12 08:05:48;;;;;;;7.23;5.10;;;18.60;99.90;;;;;;5381422;26;20355;-79
2024/04/12 08:08:15;;;;;;;8.17;4.97;;;18.70;99.90;;;;;;5381613;26;20232;-78
2024/04/12 08:10:45;;;;;;;5.33;4.47;;;19.00;99.90;;;;;;5382899;26;20319;-78
2024/04/12 08:13:23;;;;;;;6.50;4.27;;;19.10;99.90;;;;;;5381956;26;20498;-78
2024/04/12 08:15:52;;;;;;;7.83;4.67;;;19.40;99.90;;;;;;5383413;26;20233;-78
2024/04/12 08:18:20;;;;;;;5.80;4.63;;;19.40;99.90;;;;;;5381445;26;20233;-78
2024/04/12 08:20:49;;;;;;;6.20;4.13;;;19.40;99.90;;;;;;5382333;26;20242;-79
2024/04/12 08:23:17;;;;;;;8.40;5.17;;;19.50;99.90;;;;;;5382277;26;20350;-78
2024/04/12 08:25:48;;;;;;;5.87;4.33;;;19.80;99.90;;;;;;5379744;26;20828;-79
2024/04/12 08:28:17;;;;;;;7.60;5.50;;;20.00;99.90;;;;;;5379471;26;20276;-78
2024/04/12 08:31:05;;;;;;;5.50;4.73;;;20.20;99.90;;;;;;5381638;26;20237;-78
2024/04/12 08:33:32;;;;;;;7.37;5.30;;;20.40;99.90;;;;;;5382981;26;20233;-78
2024/04/12 08:36:02;;;;;;;6.80;6.03;;;20.60;99.90;;;;;;5381962;26;20246;-78
2024/04/12 08:38:28;;;;;;;8.90;6.83;;;20.90;99.90;;;;;;5409932;26;20300;-78
2024/04/12 08:41:02;;;;;;;8.53;6.47;;;20.90;99.90;;;;;;5380623;26;20331;-78
2024/04/12 08:43:41;;;;;;;6.67;6.03;;;21.00;99.90;;;;;;5382323;26;21485;-78
2024/04/12 08:46:21;;;;;;;6.27;5.67;;;20.70;99.90;;;;;;5381140;26;20234;-78
2024/04/12 08:48:47;;;;;;;11.70;7.17;;;20.90;99.90;;;;;;5379961;26;20308;-77
2024/04/12 08:51:22;;;;;;;6.63;6.03;;;21.00;99.90;;;;;;5381868;26;20287;-79
2024/04/12 08:53:55;;;;;;;8.93;7.13;;;20.80;99.90;;;;;;5390794;26;20240;-80
2024/04/12 08:56:28;;;;;;;8.00;6.67;;;21.10;99.90;;;;;;5386254;26;20237;-79
2024/04/12 08:59:00;;;;;;;7.13;5.73;;;21.10;99.90;;;;;;5413766;26;20232;-78
2024/04/12 09:01:29;;;;;;;6.23;4.40;;;21.30;99.90;;;;;;5386937;26;20680;-79
2024/04/12 09:04:04;;;;;;;6.73;5.77;;;21.60;99.90;;;;;;5380408;26;20245;-79
2024/04/12 09:06:35;;;;;;;8.33;5.80;;;21.80;99.90;;;;;;5380852;26;20279;-78
2024/04/12 09:09:01;;;;;;;6.03;5.10;;;22.00;99.90;;;;;;5380468;26;20237;-79
2024/04/12 09:11:31;;;;;;;7.67;6.77;;;22.20;99.90;;;;;;5409008;26;20238;-80
2024/04/12 09:14:08;;;;;;;8.93;8.13;;;22.30;99.90;;;;;;5381209;26;20237;-80
2024/04/12 09:16:43;;;;;;;8.67;7.87;;;22.40;99.90;;;;;;5381535;26;20276;-79
2024/04/12 09:19:13;;;;;;;7.97;7.27;;;22.20;99.90;;;;;;5388631;26;20735;-79
2024/04/12 09:21:58;;;;;;;11.70;8.17;;;22.30;99.90;;;;;;5382356;26;20233;-80
2024/04/12 09:24:31;;;;;;;9.77;8.43;;;22.50;99.90;;;;;;5380146;26;20245;-80
2024/04/12 09:27:09;;;;;;;9.27;8.33;;;22.60;99.90;;;;;;5370266;26;20268;-80
2024/04/12 09:29:43;;;;;;;8.67;7.87;;;22.60;99.90;;;;;;5381346;26;20287;-79
2024/04/12 09:34:58;;;;;;;7.07;6.37;;;22.90;99.90;;;;;;5383907;26;20766;-78
2024/04/12 09:37:38;;;;;;;8.60;7.80;;;23.20;99.90;;;;;;5405831;26;20594;-79
2024/04/12 09:40:28;;;;;;;8.67;7.97;;;22.90;99.90;;;;;;5381790;26;20237;-79
2024/04/12 09:45:49;;;;;;;8.00;7.30;;;22.90;99.90;;;;;;5369740;26;20280;-78
2024/04/12 10:38:47;;;;;;;6.50;6.00;;;22.00;97.60;;;;;;5383051;26;20284;-79
2024/04/12 10:41:16;;;;;;;7.47;6.63;;;22.10;97.80;;;;;;5396064;26;20283;-78
2024/04/12 10:43:45;;;;;;;7.20;6.30;;;22.00;97.10;;;;;;5380693;26;20394;-78
2024/04/12 10:46:14;;;;;;;7.17;6.47;;;22.00;97.80;;;;;;5380297;26;20276;-80
2024/04/12 10:48:42;;;;;;;7.00;6.30;;;21.90;96.40;;;;;;5371065;26;20352;-78
2024/04/12 10:51:16;;;;;;;6.67;6.07;;;21.90;97.90;;;;;;5379249;26;20286;-78
2024/04/12 10:53:42;;;;;;;6.33;5.77;;;22.10;98.10;;;;;;5371497;26;20288;-79
2024/04/12 10:56:18;;;;;;;7.13;6.50;;;22.20;97.80;;;;;;5381501;26;20334;-77
2024/04/12 10:58:51;;;;;;;6.30;5.70;;;22.30;98.20;;;;;;5381685;26;20248;-78
2024/04/12 11:01:18;;;;;;;6.40;5.80;;;22.30;97.60;;;;;;5378841;26;20242;-78
2024/04/12 11:03:56;;;;;;;5.77;5.17;;;22.40;98.00;;;;;;5379992;26;20245;-79
2024/04/12 11:06:33;;;;;;;7.57;6.73;;;22.40;98.10;;;;;;5377940;26;20269;-77
2024/04/12 11:09:04;;;;;;;6.67;6.10;;;22.30;97.10;;;;;;5380902;26;20288;-78
2024/04/12 11:11:37;;;;;;;6.57;5.90;;;22.20;97.70;;;;;;5380300;26;20237;-77
2024/04/12 11:14:15;;;;;;;6.43;5.73;;;22.40;98.10;;;;;;5408261;26;20245;-77
2024/04/12 11:33:32;;;;;;;7.33;6.57;;;22.70;97.10;;;;;;5384222;26;20319;-79
2024/04/12 11:36:01;;;;;;;6.00;5.40;;;22.50;96.00;;;;;;5381710;26;20233;-78
2024/04/12 11:38:32;;;;;;;5.07;4.67;;;22.30;97.50;;;;;;5375503;26;20733;-77
2024/04/12 11:40:58;;;;;;;4.97;4.47;;;22.20;97.40;;;;;;5381719;26;20230;-79
2024/04/12 11:43:26;;;;;;;5.00;4.50;;;22.20;98.00;;;;;;5381036;26;20277;-77
2024/04/12 11:45:52;;;;;;;5.10;4.70;;;22.30;97.30;;;;;;5381071;26;20233;-77
2024/04/12 11:48:28;;;;;;;6.43;5.20;;;22.40;98.00;;;;;;5380269;26;20233;-78
2024/04/12 11:50:54;;;;;;;6.53;5.87;;;22.40;98.00;;;;;;5409676;26;20241;-78
2024/04/12 11:53:26;;;;;;;5.87;5.37;;;22.30;97.60;;;;;;5381241;26;20853;-78
2024/04/12 11:55:55;;;;;;;5.97;5.50;;;22.30;97.80;;;;;;5381468;26;20234;-78
2024/04/12 11:58:23;;;;;;;6.40;5.80;;;22.30;96.80;;;;;;5379187;26;20237;-79
2024/04/12 12:00:49;;;;;;;6.63;5.93;;;22.10;97.20;;;;;;5395821;26;20340;-78
2024/04/12 12:03:20;;;;;;;6.77;6.17;;;22.00;97.00;;;;;;5380865;26;20777;-77
2024/04/12 12:05:52;;;;;;;6.40;5.83;;;22.00;97.90;;;;;;5381601;26;20237;-78
2024/04/12 12:08:25;;;;;;;6.10;5.60;;;22.00;97.00;;;;;;5383966;26;20233;-77
2024/04/12 12:10:56;;;;;;;6.73;5.97;;;22.00;97.40;;;;;;5382687;26;20611;-78
2024/04/12 12:13:22;;;;;;;10.50;6.03;;;21.80;96.70;;;;;;5383470;26;20237;-78
2024/04/12 12:15:51;;;;;;;6.60;6.10;;;21.60;97.30;;;;;;5381525;26;20267;-78
2024/04/12 12:18:17;;;;;;;6.30;5.80;;;21.60;96.60;;;;;;5383966;26;20229;-78
2024/04/12 12:20:46;;;;;;;6.30;5.70;;;21.60;96.70;;;;;;5383855;26;20619;-79
2024/04/12 12:23:13;;;;;;;5.80;5.40;;;21.50;95.00;;;;;;5407450;26;20923;-79
2024/04/12 12:25:42;;;;;;;5.53;5.13;;;21.30;94.00;;;;;;5408131;26;20245;-78
2024/04/12 12:28:10;;;;;;;6.50;5.90;;;21.30;95.70;;;;;;5380355;26;20242;-78
2024/04/12 12:30:38;;;;;;;5.73;5.23;;;21.40;95.70;;;;;;5384399;26;20625;-79
2024/04/12 12:33:07;;;;;;;5.80;5.30;;;21.60;95.80;;;;;;5412004;26;20295;-79
2024/04/12 12:35:36;;;;;;;6.07;5.40;;;21.50;94.80;;;;;;5383108;26;20699;-80
2024/04/12 12:38:01;;;;;;;5.30;4.90;;;21.30;94.60;;;;;;5387656;26;20504;-79
2024/04/12 12:40:30;;;;;;;4.90;4.50;;;21.20;94.80;;;;;;5388352;26;20237;-77
2024/04/12 12:42:56;;;;;;;5.20;4.80;;;21.10;95.00;;;;;;5391050;26;20355;-77
2024/04/12 12:45:27;;;;;;;6.00;5.60;;;21.10;95.00;;;;;;5391993;26;20696;-77
2024/04/12 12:47:53;;;;;;;5.50;5.00;;;21.10;94.80;;;;;;5387595;26;20226;-78
2024/04/12 12:50:24;;;;;;;5.57;5.17;;;21.10;95.60;;;;;;5416305;26;20271;-78
2024/04/12 12:52:51;;;;;;;5.47;5.07;;;21.20;96.20;;;;;;5388181;26;20576;-78
2024/04/12 12:55:22;;;;;;;7.57;5.60;;;21.30;96.40;;;;;;5387007;26;20241;-78
2024/04/12 12:57:49;;;;;;;7.00;5.47;;;21.30;96.70;;;;;;5374606;26;20234;-77
2024/04/12 13:00:21;;;;;;;5.60;5.20;;;21.30;96.60;;;;;;5385627;26;20347;-78
2024/04/12 13:02:50;;;;;;;5.70;5.20;;;21.30;96.70;;;;;;5387558;26;20285;-78
2024/04/12 13:05:19;;;;;;;5.70;5.30;;;21.30;96.50;;;;;;5387903;26;20253;-77
2024/04/12 13:07:49;;;;;;;5.90;5.37;;;21.30;96.90;;;;;;5384280;26;20237;-79
2024/04/12 13:10:19;;;;;;;5.50;5.10;;;21.30;96.20;;;;;;5387794;26;20234;-78
2024/04/12 13:12:51;;;;;;;5.50;5.10;;;21.30;96.50;;;;;;5415102;26;20241;-78
2024/04/12 13:15:22;;;;;;;5.50;5.03;;;21.30;96.00;;;;;;5387769;26;20585;-78
2024/04/12 13:17:50;;;;;;;6.10;5.60;;;21.20;95.50;;;;;;5385731;26;20293;-78
2024/04/12 13:20:21;;;;;;;5.57;5.17;;;21.00;96.20;;;;;;5385948;26;20764;-78
2024/04/12 13:22:47;;;;;;;5.70;5.20;;;20.90;96.60;;;;;;5387891;26;20280;-77
2024/04/12 13:25:16;;;;;;;5.57;5.07;;;20.90;96.50;;;;;;5384839;26;20249;-78
2024/04/12 13:27:46;;;;;;;5.30;4.90;;;21.00;97.20;;;;;;5383253;26;20780;-78
2024/04/12 13:30:17;;;;;;;5.27;4.90;;;21.10;96.70;;;;;;5385746;26;20240;-78
2024/04/12 13:32:43;;;;;;;5.20;4.80;;;21.10;96.70;;;;;;5386355;26;20783;-78
2024/04/12 13:35:14;;;;;;;4.80;4.50;;;21.10;96.40;;;;;;5385351;26;20245;-77
2024/04/12 13:37:42;;;;;;;4.83;4.53;;;21.10;96.20;;;;;;5384984;26;20234;-78
2024/04/12 13:40:17;;;;;;;4.70;4.30;;;21.20;95.80;;;;;;5387209;26;20279;-77
2024/04/12 13:42:45;;;;;;;4.70;4.40;;;21.20;95.50;;;;;;5387534;26;20407;-78
2024/04/12 13:50:54;;;;;;;4.77;4.40;;;21.00;92.60;;;;;;5411978;26;20640;-78
2024/04/12 13:53:32;;;;;;;4.80;4.50;;;21.00;91.40;;;;;;5394602;26;20241;-78
2024/04/12 13:56:17;;;;;;;4.17;3.97;;;21.00;87.20;;;;;;5382246;26;20236;-78
2024/04/12 13:58:48;;;;;;;4.80;4.43;;;21.00;88.40;;;;;;5380206;26;20241;-78
2024/04/12 14:01:17;;;;;;;4.43;4.13;;;21.10;86.30;;;;;;5383984;26;20392;-78
2024/04/12 14:03:43;;;;;;;4.40;4.10;;;21.10;82.60;;;;;;5368019;26;20772;-80
2024/04/12 14:06:14;;;;;;;4.10;3.80;;;21.10;83.90;;;;;;5375485;26;20288;-80
2024/04/12 14:08:40;;;;;;;4.10;3.80;;;21.20;82.10;;;;;;5381398;26;20689;-80
2024/04/12 14:11:10;;;;;;;4.27;4.03;;;21.20;79.60;;;;;;5385523;26;20246;-79
2024/04/12 14:13:36;;;;;;;4.50;4.20;;;21.30;81.80;;;;;;5395536;26;20234;-78
2024/04/12 14:16:05;;;;;;;3.90;3.70;;;21.30;82.90;;;;;;5394638;26;20245;-78
2024/04/12 14:18:31;;;;;;;4.10;3.80;;;21.30;81.50;;;;;;5381994;26;20281;-79
2024/04/12 14:20:59;;;;;;;4.30;4.00;;;21.30;82.10;;;;;;5403155;26;20832;-79
2024/04/12 14:23:29;;;;;;;4.20;3.80;;;21.40;82.70;;;;;;5384573;26;20268;-78
2024/04/12 14:25:58;;;;;;;3.87;3.60;;;21.50;83.10;;;;;;5406063;26;20271;-79